Time;durP1;ratioP1;P1;durP2;ratioP2;P2;SDS_P1;SDS_P2;PMS_P1;PMS_P2;Temp;Humidity;BMP_temperature;BMP_pressure;BME280_temperature;BME280_humidity;BME280_pressure;Samples;Min_cycle;Max_cycle;Signal;HPM_P1;HPM_P2
2023/01/07 00:01:25;;;;;;;4.20;3.70;;;10.40;1.00;;;;;;4855448;29;20270;-72
2023/01/07 00:03:53;;;;;;;3.97;2.80;;;10.50;1.00;;;;;;4851482;29;20197;-71
2023/01/07 00:06:22;;;;;;;3.00;2.70;;;10.40;1.00;;;;;;4855491;29;20313;-69
2023/01/07 00:08:52;;;;;;;2.70;2.50;;;10.50;1.00;;;;;;4853354;29;20243;-69
2023/01/07 00:11:40;;;;;;;5.87;2.90;;;10.50;1.00;;;;;;4854368;29;20289;-69
2023/01/07 00:14:10;;;;;;;4.97;2.57;;;10.60;99.90;;;;;;4851389;29;20205;-69
2023/01/07 00:16:38;;;;;;;4.17;2.60;;;10.60;99.90;;;;;;4854753;29;20234;-69
2023/01/07 00:19:06;;;;;;;10.57;5.60;;;10.60;99.90;;;;;;4856258;29;20336;-69
2023/01/07 00:21:34;;;;;;;4.43;2.60;;;10.60;99.90;;;;;;4837487;29;20225;-70
2023/01/07 00:24:04;;;;;;;2.57;2.37;;;10.60;99.90;;;;;;4858609;29;20198;-72
2023/01/07 00:26:36;;;;;;;7.37;5.83;;;10.70;99.90;;;;;;4852215;29;20214;-70
2023/01/07 00:29:04;;;;;;;7.30;5.10;;;10.70;99.90;;;;;;4851096;29;20246;-68
2023/01/07 00:31:34;;;;;;;5.63;4.20;;;10.70;99.90;;;;;;4849983;29;20238;-70
2023/01/07 00:36:31;;;;;;;2.33;2.00;;;10.70;99.90;;;;;;4853213;29;20842;-68
2023/01/07 00:39:05;;;;;;;2.77;2.43;;;10.70;99.90;;;;;;4849347;29;20891;-69
2023/01/07 00:41:32;;;;;;;3.10;2.07;;;10.70;99.90;;;;;;4851626;29;20258;-68
2023/01/07 00:43:59;;;;;;;2.57;1.67;;;10.70;99.90;;;;;;4848831;29;20226;-70
2023/01/07 00:46:26;;;;;;;1.50;1.40;;;10.60;99.90;;;;;;4869209;29;20314;-69
2023/01/07 00:48:54;;;;;;;3.13;2.10;;;10.70;99.90;;;;;;4857014;29;20667;-66
2023/01/07 00:51:21;;;;;;;2.13;1.50;;;10.70;99.90;;;;;;4869137;29;20259;-65
2023/01/07 00:53:48;;;;;;;1.63;1.50;;;10.70;99.90;;;;;;4849025;29;20206;-68
2023/01/07 00:56:19;;;;;;;4.23;1.97;;;10.70;99.90;;;;;;4861041;29;20285;-66
2023/01/07 00:58:46;;;;;;;2.07;1.80;;;10.80;99.90;;;;;;4832191;29;20198;-67
2023/01/07 01:01:14;;;;;;;2.47;1.80;;;10.80;99.90;;;;;;4846525;29;20754;-67
2023/01/07 01:03:41;;;;;;;3.20;1.90;;;10.70;99.90;;;;;;4856842;29;20234;-67
2023/01/07 01:06:13;;;;;;;1.57;1.47;;;10.80;99.90;;;;;;4869995;29;20229;-68
2023/01/07 01:08:42;;;;;;;3.30;1.40;;;10.80;99.90;;;;;;4869398;29;20225;-68
2023/01/07 01:11:11;;;;;;;2.23;1.37;;;10.80;99.90;;;;;;4855420;29;20309;-69
2023/01/07 01:13:39;;;;;;;2.13;1.40;;;10.80;99.90;;;;;;4855002;29;20214;-66
2023/01/07 01:16:12;;;;;;;2.90;1.50;;;10.80;94.90;;;;;;4854341;29;20209;-69
2023/01/07 01:18:40;;;;;;;1.77;1.40;;;10.80;93.80;;;;;;4868181;29;20222;-68
2023/01/07 01:21:09;;;;;;;1.40;1.30;;;10.70;95.70;;;;;;4847146;29;20289;-68
2023/01/07 01:23:37;;;;;;;2.63;1.33;;;10.70;91.90;;;;;;4840124;29;20305;-68
2023/01/07 01:26:13;;;;;;;2.20;1.30;;;10.70;93.10;;;;;;4854431;29;20207;-68
2023/01/07 01:28:42;;;;;;;1.93;1.20;;;10.70;88.10;;;;;;4862934;29;20614;-69
2023/01/07 01:31:10;;;;;;;2.27;1.10;;;10.80;85.10;;;;;;4869555;29;21252;-67
2023/01/07 01:33:45;;;;;;;1.63;1.20;;;10.70;82.90;;;;;;4870998;29;20202;-68
2023/01/07 01:36:12;;;;;;;1.20;1.10;;;10.80;66.00;;;;;;4861058;29;20695;-69
2023/01/07 01:38:40;;;;;;;1.40;1.30;;;10.80;65.70;;;;;;4870057;29;20202;-68
2023/01/07 01:41:08;;;;;;;1.60;1.20;;;10.80;54.70;;;;;;4854072;29;20209;-71
2023/01/07 01:43:40;;;;;;;1.30;1.20;;;10.80;47.60;;;;;;4847576;29;20667;-67
2023/01/07 01:46:41;;;;;;;1.40;1.30;;;10.80;44.20;;;;;;4851855;29;20210;-67
2023/01/07 01:49:29;;;;;;;3.07;1.17;;;10.80;30.30;;;;;;4854807;29;20211;-66
2023/01/07 01:52:08;;;;;;;1.77;1.23;;;10.80;22.70;;;;;;4853119;29;20263;-65
2023/01/07 01:54:36;;;;;;;3.43;2.63;;;10.80;22.20;;;;;;4855355;29;20225;-66
2023/01/07 01:57:05;;;;;;;1.43;1.33;;;10.80;19.90;;;;;;4854587;29;20235;-67
2023/01/07 01:59:36;;;;;;;3.20;1.40;;;10.80;16.10;;;;;;4854807;29;20272;-68
2023/01/07 02:02:07;;;;;;;1.27;1.17;;;10.80;13.10;;;;;;4832858;29;20206;-65
2023/01/07 02:04:36;;;;;;;1.30;1.20;;;10.80;13.40;;;;;;4846064;29;20234;-66
2023/01/07 02:07:09;;;;;;;1.57;1.20;;;10.80;14.60;;;;;;4847207;29;20274;-65
2023/01/07 02:09:40;;;;;;;1.53;1.40;;;10.80;29.00;;;;;;4848022;29;20563;-65
2023/01/07 02:12:15;;;;;;;3.23;1.40;;;10.80;9.80;;;;;;4867299;29;20203;-74
2023/01/07 02:15:00;;;;;;;1.60;1.50;;;10.80;9.20;;;;;;4855333;29;20695;-66
2023/01/07 02:17:53;;;;;;;3.97;2.00;;;10.80;9.00;;;;;;4853706;29;20202;-70
2023/01/07 02:20:35;;;;;;;3.50;2.63;;;10.70;11.80;;;;;;4856034;29;20237;-66
2023/01/07 02:23:21;;;;;;;4.23;2.00;;;10.70;6.30;;;;;;4854011;29;20214;-66
2023/01/07 02:26:19;;;;;;;1.67;1.57;;;10.80;1.00;;;;;;4855380;29;20331;-69
2023/01/07 02:29:10;;;;;;;2.43;2.20;;;10.80;1.00;;;;;;4847037;29;20218;-67
2023/01/07 02:32:06;;;;;;;2.07;1.80;;;10.70;1.00;;;;;;4854124;29;20242;-66
2023/01/07 02:34:57;;;;;;;2.20;1.63;;;10.70;1.00;;;;;;4854405;29;20210;-66
2023/01/07 02:38:01;;;;;;;1.30;1.20;;;10.80;1.00;;;;;;4839289;29;20226;-65
2023/01/07 02:40:46;;;;;;;1.50;1.40;;;10.80;1.00;;;;;;4853342;29;20202;-66
2023/01/07 02:43:42;;;;;;;1.97;1.20;;;10.80;1.00;;;;;;4855941;29;20232;-66
2023/01/07 02:46:46;;;;;;;2.87;1.10;;;10.80;1.00;;;;;;4832903;29;20210;-66
2023/01/07 02:49:15;;;;;;;1.10;1.00;;;10.90;1.00;;;;;;4854325;29;20198;-67
2023/01/07 02:51:43;;;;;;;1.20;1.10;;;10.90;1.00;;;;;;4846634;29;20195;-66
2023/01/07 02:54:18;;;;;;;1.50;1.30;;;10.80;1.00;;;;;;4859323;29;20213;-66
2023/01/07 02:57:20;;;;;;;1.13;1.00;;;10.80;1.00;;;;;;4870854;29;20864;-67
2023/01/07 03:00:06;;;;;;;1.23;1.03;;;10.80;1.00;;;;;;4857685;29;20285;-70
2023/01/07 03:02:33;;;;;;;3.10;1.30;;;10.70;1.00;;;;;;4857279;29;20281;-66
2023/01/07 03:05:16;;;;;;;0.97;0.97;;;10.80;1.00;;;;;;4841014;29;20250;-66
2023/01/07 03:07:58;;;;;;;1.23;1.00;;;10.80;1.00;;;;;;4857474;29;20707;-66
2023/01/07 03:10:58;;;;;;;1.27;1.10;;;10.80;1.00;;;;;;4841089;29;20340;-66
2023/01/07 03:13:53;;;;;;;1.93;1.20;;;10.80;1.00;;;;;;4844918;29;20204;-66
2023/01/07 03:16:29;;;;;;;2.13;1.20;;;10.80;1.00;;;;;;4855507;29;20846;-65
2023/01/07 03:19:20;;;;;;;1.03;0.93;;;10.70;1.00;;;;;;4857194;29;20258;-66
2023/01/07 03:21:49;;;;;;;1.10;1.00;;;10.70;1.00;;;;;;4856701;29;20234;-66
2023/01/07 03:24:17;;;;;;;1.10;1.00;;;10.70;1.00;;;;;;4857259;29;20289;-66
2023/01/07 03:26:50;;;;;;;3.13;1.10;;;10.70;1.00;;;;;;4855829;29;20620;-66
2023/01/07 03:29:18;;;;;;;2.77;1.07;;;10.70;1.00;;;;;;4855643;29;20230;-66
2023/01/07 03:32:13;;;;;;;1.90;1.20;;;10.70;1.00;;;;;;4834331;29;20237;-67
2023/01/07 03:34:42;;;;;;;1.10;1.00;;;10.70;1.00;;;;;;4873277;29;20210;-67
2023/01/07 03:37:13;;;;;;;1.13;1.00;;;10.70;1.00;;;;;;4857363;29;20544;-70
2023/01/07 03:39:43;;;;;;;1.33;1.10;;;10.70;1.00;;;;;;4840846;29;20463;-66
2023/01/07 03:44:59;;;;;;;1.63;1.03;;;10.70;1.00;;;;;;4854836;29;20680;-64
2023/01/07 03:47:29;;;;;;;1.30;1.20;;;10.70;1.00;;;;;;4870969;29;20279;-69
2023/01/07 03:49:56;;;;;;;1.20;1.10;;;10.60;1.00;;;;;;4846385;29;20659;-68
2023/01/07 03:52:26;;;;;;;1.63;1.20;;;10.60;1.00;;;;;;4871004;29;20210;-70
2023/01/07 03:54:53;;;;;;;2.60;1.27;;;10.60;1.00;;;;;;4863363;29;20205;-69
2023/01/07 03:57:20;;;;;;;1.83;1.20;;;10.60;1.00;;;;;;4862203;29;20209;-69
2023/01/07 03:59:47;;;;;;;1.77;1.30;;;10.70;1.00;;;;;;4853379;29;20243;-67
2023/01/07 04:02:14;;;;;;;1.60;1.40;;;10.70;1.00;;;;;;4864154;29;20564;-69
2023/01/07 04:04:42;;;;;;;1.20;1.10;;;10.70;1.00;;;;;;4857877;29;20198;-69
2023/01/07 04:07:09;;;;;;;2.93;1.30;;;10.70;1.00;;;;;;4856016;29;20238;-70
2023/01/07 04:09:36;;;;;;;1.30;1.20;;;10.60;1.00;;;;;;4848995;29;20203;-70
2023/01/07 04:12:03;;;;;;;2.57;1.10;;;10.60;1.00;;;;;;4870279;29;20258;-70
2023/01/07 04:14:31;;;;;;;1.47;1.10;;;10.60;1.00;;;;;;4870839;29;20201;-69
2023/01/07 04:16:58;;;;;;;1.30;1.20;;;10.60;1.00;;;;;;4871647;29;20263;-68
2023/01/07 04:19:25;;;;;;;1.63;1.30;;;10.70;1.00;;;;;;4872109;29;20202;-67
2023/01/07 04:21:52;;;;;;;2.50;1.20;;;10.70;1.00;;;;;;4871125;29;20198;-69
2023/01/07 04:24:19;;;;;;;0.90;0.90;;;10.70;1.00;;;;;;4856166;29;20210;-68
2023/01/07 04:26:47;;;;;;;1.23;1.13;;;10.70;1.00;;;;;;4870892;29;20831;-69
2023/01/07 04:29:14;;;;;;;2.73;1.20;;;10.60;1.00;;;;;;4871663;29;20259;-69
2023/01/07 04:31:41;;;;;;;1.40;1.30;;;10.60;1.00;;;;;;4866691;29;20225;-70
2023/01/07 04:34:08;;;;;;;1.97;1.20;;;10.60;1.00;;;;;;4867647;29;20209;-69
2023/01/07 04:36:35;;;;;;;1.30;1.20;;;10.70;1.00;;;;;;4852619;29;20757;-70
2023/01/07 04:39:03;;;;;;;1.73;1.23;;;10.60;1.00;;;;;;4856932;29;20213;-70
2023/01/07 04:41:31;;;;;;;1.87;1.30;;;10.60;1.00;;;;;;4874715;29;20207;-69
2023/01/07 04:43:58;;;;;;;1.63;1.30;;;10.60;1.00;;;;;;4858083;29;20574;-71
2023/01/07 04:46:25;;;;;;;1.23;1.13;;;10.50;1.00;;;;;;4848985;29;20238;-70
2023/01/07 04:48:53;;;;;;;1.13;1.03;;;10.60;1.00;;;;;;4858376;29;20224;-70
2023/01/07 04:51:21;;;;;;;1.20;1.10;;;10.60;1.00;;;;;;4850015;29;20561;-69
2023/01/07 04:53:48;;;;;;;1.30;1.20;;;10.60;1.00;;;;;;4859854;29;20202;-71
2023/01/07 04:56:16;;;;;;;1.27;1.03;;;10.60;1.00;;;;;;4850410;29;20216;-70
2023/01/07 04:58:43;;;;;;;5.17;1.33;;;10.60;1.00;;;;;;4858864;29;20217;-72
2023/01/07 05:01:11;;;;;;;1.30;1.20;;;10.60;1.00;;;;;;4872963;29;20206;-70
2023/01/07 05:03:39;;;;;;;1.87;1.33;;;10.50;1.00;;;;;;4859510;29;20563;-70
2023/01/07 05:06:08;;;;;;;1.60;1.10;;;10.50;1.00;;;;;;4859082;29;20233;-70
2023/01/07 05:08:36;;;;;;;3.83;1.30;;;10.50;1.00;;;;;;4856516;29;20220;-70
2023/01/07 05:11:04;;;;;;;1.37;1.17;;;10.50;1.00;;;;;;4857232;29;20229;-70
2023/01/07 05:13:34;;;;;;;1.93;1.30;;;10.60;1.00;;;;;;4865432;29;20231;-71
2023/01/07 05:16:03;;;;;;;1.50;1.40;;;10.50;1.00;;;;;;4871182;29;20257;-76
2023/01/07 05:18:30;;;;;;;2.90;1.30;;;10.50;1.00;;;;;;4872345;29;20205;-70
2023/01/07 05:20:58;;;;;;;3.27;1.27;;;10.50;1.00;;;;;;4850642;29;20233;-69
2023/01/07 05:23:25;;;;;;;1.30;1.20;;;10.50;1.00;;;;;;4858312;29;20213;-70
2023/01/07 05:25:52;;;;;;;1.67;1.30;;;10.50;1.00;;;;;;4857716;29;20202;-69
2023/01/07 05:28:19;;;;;;;1.93;1.30;;;10.50;1.00;;;;;;4857069;29;20622;-67
2023/01/07 05:30:46;;;;;;;1.83;1.67;;;10.50;1.00;;;;;;4850334;29;20269;-67
2023/01/07 05:33:14;;;;;;;3.87;1.60;;;10.50;1.00;;;;;;4856141;29;20296;-68
2023/01/07 05:35:40;;;;;;;1.53;1.43;;;10.50;1.00;;;;;;4873608;29;20201;-68
2023/01/07 05:38:08;;;;;;;1.83;1.33;;;10.50;1.00;;;;;;4872000;29;20218;-68
2023/01/07 05:40:35;;;;;;;1.63;1.20;;;10.50;1.00;;;;;;4850270;29;20273;-68
2023/01/07 05:43:02;;;;;;;2.80;1.40;;;10.40;1.00;;;;;;4870195;29;20205;-67
2023/01/07 05:45:29;;;;;;;2.67;1.50;;;10.40;1.00;;;;;;4873233;29;20332;-67
2023/01/07 05:47:56;;;;;;;1.67;1.40;;;10.40;1.00;;;;;;4872948;29;20304;-68
2023/01/07 05:50:23;;;;;;;1.20;1.10;;;10.40;1.00;;;;;;4856367;29;20234;-67
2023/01/07 05:52:50;;;;;;;1.37;1.27;;;10.40;1.00;;;;;;4864998;29;20190;-68
2023/01/07 05:55:18;;;;;;;2.60;1.50;;;10.40;1.00;;;;;;4872799;29;20273;-68
2023/01/07 05:57:44;;;;;;;1.50;1.40;;;10.30;1.00;;;;;;4872352;29;20232;-67
2023/01/07 06:00:12;;;;;;;1.70;1.60;;;10.20;1.00;;;;;;4862322;29;20293;-65
2023/01/07 06:02:39;;;;;;;1.70;1.50;;;10.20;1.00;;;;;;4858190;29;20197;-69
2023/01/07 06:05:07;;;;;;;2.00;1.30;;;10.30;1.00;;;;;;4855598;29;20561;-69
2023/01/07 06:07:34;;;;;;;1.60;1.50;;;10.20;1.00;;;;;;4873918;29;20261;-68
2023/01/07 06:10:01;;;;;;;1.70;1.20;;;10.10;1.00;;;;;;4874784;29;20277;-67
2023/01/07 06:12:29;;;;;;;3.63;1.50;;;10.10;1.00;;;;;;4862381;29;20276;-67
2023/01/07 06:14:56;;;;;;;1.73;1.50;;;10.00;1.00;;;;;;4873946;29;20529;-67
2023/01/07 06:17:23;;;;;;;2.20;1.67;;;10.00;1.00;;;;;;4862968;29;20297;-68
2023/01/07 06:19:50;;;;;;;1.50;1.40;;;9.90;1.00;;;;;;4857202;29;20661;-67
2023/01/07 06:22:17;;;;;;;2.13;1.57;;;10.00;1.00;;;;;;4849077;29;20305;-67
2023/01/07 06:24:44;;;;;;;2.27;1.47;;;10.00;1.00;;;;;;4873093;29;20200;-70
2023/01/07 06:27:11;;;;;;;1.93;1.47;;;10.00;1.00;;;;;;4850352;29;20273;-70
2023/01/07 06:29:38;;;;;;;3.07;1.63;;;10.00;1.00;;;;;;4867971;29;20309;-70
2023/01/07 06:32:05;;;;;;;1.60;1.43;;;10.00;1.00;;;;;;4877405;29;20265;-70
2023/01/07 06:34:32;;;;;;;3.43;1.80;;;10.00;1.00;;;;;;4861935;29;20686;-71
2023/01/07 06:37:00;;;;;;;1.23;1.13;;;9.90;1.00;;;;;;4877486;29;20670;-70
2023/01/07 06:39:27;;;;;;;2.83;1.80;;;10.00;1.00;;;;;;4860873;29;20217;-70
2023/01/07 06:41:54;;;;;;;3.97;1.80;;;10.00;1.00;;;;;;4877503;29;20738;-71
2023/01/07 06:44:21;;;;;;;2.17;1.40;;;10.00;1.00;;;;;;4876936;29;20258;-69
2023/01/07 06:46:48;;;;;;;2.53;1.40;;;10.00;1.00;;;;;;4862006;29;20290;-71
2023/01/07 06:49:15;;;;;;;3.10;1.50;;;10.00;1.00;;;;;;4877542;29;20214;-70
2023/01/07 06:51:42;;;;;;;3.07;1.43;;;10.00;1.00;;;;;;4860706;29;20226;-65
2023/01/07 06:54:10;;;;;;;1.60;1.40;;;9.90;1.00;;;;;;4853925;29;20262;-68
2023/01/07 06:56:36;;;;;;;1.50;1.40;;;9.90;1.00;;;;;;4861231;29;20285;-68
2023/01/07 06:59:03;;;;;;;4.73;2.57;;;9.90;1.00;;;;;;4867924;29;20261;-68
2023/01/07 07:01:30;;;;;;;2.27;1.90;;;9.90;1.00;;;;;;4861734;29;20329;-69
2023/01/07 07:03:57;;;;;;;2.03;1.50;;;9.80;1.00;;;;;;4861418;29;20282;-68
2023/01/07 07:06:24;;;;;;;3.77;1.53;;;9.80;1.00;;;;;;4860877;29;20292;-67
2023/01/07 07:08:51;;;;;;;1.67;1.33;;;9.80;1.00;;;;;;4860500;29;20686;-67
2023/01/07 07:11:18;;;;;;;1.53;1.43;;;9.80;1.00;;;;;;4876125;29;20277;-66
2023/01/07 07:13:45;;;;;;;3.80;3.43;;;9.80;1.00;;;;;;4844534;29;20232;-68
2023/01/07 07:16:12;;;;;;;3.63;2.00;;;9.80;1.00;;;;;;4877977;29;20248;-69
2023/01/07 07:18:39;;;;;;;1.40;1.30;;;9.80;1.00;;;;;;4845361;29;20232;-69
2023/01/07 07:21:06;;;;;;;1.47;1.30;;;9.70;1.00;;;;;;4859568;29;20666;-67
2023/01/07 07:23:33;;;;;;;1.73;1.63;;;9.70;1.00;;;;;;4859952;29;20221;-67
2023/01/07 07:26:00;;;;;;;2.63;1.90;;;9.60;1.00;;;;;;4875086;29;20233;-69
2023/01/07 07:28:27;;;;;;;2.27;1.70;;;9.60;1.00;;;;;;4876910;29;20213;-68
2023/01/07 07:30:54;;;;;;;3.00;1.57;;;9.60;1.00;;;;;;4873753;29;20797;-68
2023/01/07 07:33:21;;;;;;;1.70;1.50;;;9.60;1.00;;;;;;4875181;29;20224;-68
2023/01/07 07:35:48;;;;;;;1.40;1.30;;;9.60;1.00;;;;;;4860014;29;20300;-68
2023/01/07 07:38:16;;;;;;;1.70;1.47;;;9.60;1.00;;;;;;4834589;29;20209;-68
2023/01/07 07:40:44;;;;;;;2.13;1.30;;;9.60;1.00;;;;;;4857447;29;20198;-66
2023/01/07 07:43:11;;;;;;;3.33;1.50;;;9.60;1.00;;;;;;4874487;29;20232;-66
2023/01/07 07:45:42;;;;;;;1.53;1.40;;;9.60;1.00;;;;;;4858568;29;20197;-66
2023/01/07 07:48:12;;;;;;;1.50;1.40;;;9.60;1.00;;;;;;4853847;29;20213;-66
2023/01/07 07:50:39;;;;;;;6.00;1.40;;;9.70;1.00;;;;;;4858183;29;20205;-67
2023/01/07 07:53:09;;;;;;;1.73;1.60;;;9.80;1.00;;;;;;4876563;29;20218;-66
2023/01/07 07:55:39;;;;;;;1.90;1.33;;;9.80;1.00;;;;;;4843550;29;20202;-68
2023/01/07 07:58:06;;;;;;;1.77;1.50;;;9.90;1.00;;;;;;4864958;29;20194;-68
2023/01/07 08:00:34;;;;;;;1.43;1.33;;;9.90;1.00;;;;;;4876865;29;20268;-68
2023/01/07 08:03:01;;;;;;;1.90;1.30;;;9.90;1.00;;;;;;4860425;29;20201;-68
2023/01/07 08:05:29;;;;;;;1.30;1.20;;;10.00;1.00;;;;;;4859766;29;20261;-71
2023/01/07 08:07:57;;;;;;;1.80;1.33;;;10.00;1.00;;;;;;4877041;29;20257;-70
2023/01/07 08:10:25;;;;;;;2.63;1.70;;;10.10;1.00;;;;;;4858861;29;20229;-75
2023/01/07 08:12:53;;;;;;;1.80;1.30;;;10.10;1.00;;;;;;4858279;29;20198;-71
2023/01/07 08:15:20;;;;;;;1.40;1.30;;;10.10;1.00;;;;;;4851107;29;20202;-72
2023/01/07 08:17:47;;;;;;;1.57;1.20;;;10.10;1.00;;;;;;4875046;29;20189;-70
2023/01/07 08:20:14;;;;;;;1.60;1.10;;;10.10;1.00;;;;;;4844175;29;20233;-72
2023/01/07 08:22:41;;;;;;;2.50;1.30;;;10.10;1.00;;;;;;4875263;29;20218;-70
2023/01/07 08:25:08;;;;;;;3.50;1.70;;;10.20;1.00;;;;;;4846696;29;20206;-69
2023/01/07 08:27:35;;;;;;;2.03;1.37;;;10.20;1.00;;;;;;4858476;29;20230;-71
2023/01/07 08:30:02;;;;;;;1.93;1.50;;;10.20;1.00;;;;;;4860717;29;20225;-71
2023/01/07 08:32:29;;;;;;;1.60;1.30;;;10.30;1.00;;;;;;4877160;29;20238;-71
2023/01/07 08:34:56;;;;;;;1.47;1.37;;;10.30;1.00;;;;;;4877455;29;20631;-70
2023/01/07 08:37:23;;;;;;;1.53;1.20;;;10.30;1.00;;;;;;4875541;29;20201;-70
2023/01/07 08:39:50;;;;;;;2.63;1.30;;;10.30;1.00;;;;;;4868281;29;20202;-70
2023/01/07 08:42:18;;;;;;;2.00;1.33;;;10.30;1.00;;;;;;4876383;29;20201;-69
2023/01/07 08:44:45;;;;;;;1.47;1.37;;;10.40;1.00;;;;;;4875031;29;20197;-71
2023/01/07 08:47:12;;;;;;;1.30;1.20;;;10.40;1.00;;;;;;4844297;29;20605;-68
2023/01/07 08:49:39;;;;;;;2.40;1.37;;;10.40;1.00;;;;;;4874739;29;20745;-69
2023/01/07 08:52:06;;;;;;;1.83;1.20;;;10.40;1.00;;;;;;4843018;29;20320;-68
2023/01/07 08:54:32;;;;;;;2.40;1.37;;;10.40;1.00;;;;;;4859789;29;20205;-69
2023/01/07 08:56:59;;;;;;;2.00;1.20;;;10.40;1.00;;;;;;4865236;29;20230;-70
2023/01/07 08:59:26;;;;;;;2.17;1.10;;;10.40;1.00;;;;;;4875400;29;20629;-69
2023/01/07 09:01:53;;;;;;;1.47;1.17;;;10.50;1.00;;;;;;4876205;29;20217;-69
2023/01/07 09:04:20;;;;;;;1.43;1.10;;;10.50;1.00;;;;;;4869361;29;20594;-70
2023/01/07 09:06:47;;;;;;;1.83;1.20;;;10.50;1.00;;;;;;4843641;29;20233;-71
2023/01/07 09:09:15;;;;;;;1.07;1.00;;;10.50;1.00;;;;;;4854200;29;20221;-68
2023/01/07 09:11:42;;;;;;;3.43;1.50;;;10.50;1.00;;;;;;4874977;29;20665;-68
2023/01/07 09:14:09;;;;;;;1.80;1.40;;;10.60;1.00;;;;;;4877069;29;20205;-68
2023/01/07 09:16:36;;;;;;;1.53;1.10;;;10.60;1.00;;;;;;4858537;29;20208;-69
2023/01/07 09:19:03;;;;;;;2.30;1.13;;;10.70;1.00;;;;;;4859246;29;20734;-67
2023/01/07 09:21:30;;;;;;;0.97;0.90;;;10.70;1.00;;;;;;4874902;29;20733;-67
2023/01/07 09:23:57;;;;;;;1.33;1.10;;;10.80;1.00;;;;;;4857923;29;20276;-68
2023/01/07 09:26:24;;;;;;;2.23;1.27;;;10.80;1.00;;;;;;4873710;29;20210;-68
2023/01/07 09:28:51;;;;;;;1.40;1.30;;;10.80;1.00;;;;;;4859562;29;20220;-67
2023/01/07 09:31:17;;;;;;;1.97;1.10;;;10.80;1.00;;;;;;4856672;29;20780;-69
2023/01/07 09:33:44;;;;;;;2.40;1.10;;;10.80;1.00;;;;;;4856650;29;20205;-70
2023/01/07 09:36:11;;;;;;;1.10;0.90;;;10.80;1.00;;;;;;4874937;29;20273;-70
2023/01/07 09:38:38;;;;;;;2.60;1.10;;;10.90;1.00;;;;;;4874144;29;20266;-70
2023/01/07 09:41:27;;;;;;;0.97;0.90;;;10.80;1.00;;;;;;4873090;29;20202;-68
2023/01/07 09:43:58;;;;;;;1.23;1.13;;;10.80;1.00;;;;;;4874007;29;20200;-66
2023/01/07 09:46:29;;;;;;;3.17;1.23;;;10.90;1.00;;;;;;4873089;29;20722;-68
2023/01/07 09:49:01;;;;;;;2.63;1.40;;;10.90;1.00;;;;;;4856735;29;20296;-66
2023/01/07 09:51:35;;;;;;;1.20;1.10;;;10.90;1.00;;;;;;4871405;29;20683;-69
2023/01/07 09:54:07;;;;;;;2.73;1.50;;;11.00;1.00;;;;;;4875963;29;20295;-70
2023/01/07 09:56:38;;;;;;;1.40;1.00;;;11.00;1.00;;;;;;4875213;29;20210;-68
2023/01/07 09:59:06;;;;;;;3.27;1.67;;;11.10;1.00;;;;;;4875060;29;20202;-68
2023/01/07 10:01:53;;;;;;;1.90;1.30;;;11.10;1.00;;;;;;4857866;29;20190;-70
2023/01/07 10:04:25;;;;;;;5.90;2.37;;;11.10;1.00;;;;;;4837090;29;20210;-69
2023/01/07 10:07:25;;;;;;;1.27;1.07;;;11.20;1.00;;;;;;4874615;29;20202;-69
2023/01/07 10:10:08;;;;;;;3.47;1.30;;;11.20;1.00;;;;;;4860187;29;20292;-69
2023/01/07 10:12:48;;;;;;;1.97;1.50;;;11.20;1.00;;;;;;4842435;29;20301;-69
2023/01/07 10:15:27;;;;;;;2.70;1.40;;;11.20;1.00;;;;;;4875042;29;20706;-69
2023/01/07 10:18:11;;;;;;;6.73;1.20;;;11.20;1.00;;;;;;4841963;29;20300;-69
2023/01/07 10:20:58;;;;;;;2.80;1.33;;;11.20;1.00;;;;;;4856345;29;20201;-69
2023/01/07 10:23:34;;;;;;;1.40;1.23;;;11.20;1.00;;;;;;4875389;29;20201;-69
2023/01/07 10:26:02;;;;;;;2.07;1.10;;;11.20;1.00;;;;;;4858571;29;20213;-69
2023/01/07 10:28:37;;;;;;;2.13;1.40;;;11.20;1.00;;;;;;4875979;29;20257;-69
2023/01/07 10:31:17;;;;;;;1.70;1.27;;;11.10;1.00;;;;;;4875213;29;20240;-69
2023/01/07 10:33:49;;;;;;;1.70;1.13;;;11.20;1.00;;;;;;4875001;29;20341;-69
2023/01/07 10:36:24;;;;;;;2.80;1.50;;;11.20;1.00;;;;;;4875606;29;20690;-69
2023/01/07 10:38:57;;;;;;;1.50;1.27;;;11.10;1.00;;;;;;4859370;29;20670;-69
2023/01/07 10:41:47;;;;;;;1.40;1.30;;;11.10;1.00;;;;;;4876616;29;20193;-69
2023/01/07 10:44:41;;;;;;;1.50;1.40;;;11.10;1.00;;;;;;4875316;29;20194;-69
2023/01/07 10:47:34;;;;;;;1.60;1.40;;;11.10;1.00;;;;;;4857848;29;20213;-69
2023/01/07 10:50:00;;;;;;;2.30;1.30;;;11.00;1.00;;;;;;4857588;29;20583;-69
2023/01/07 10:52:30;;;;;;;2.93;1.57;;;11.10;1.00;;;;;;4857839;29;20193;-74
2023/01/07 10:55:10;;;;;;;3.30;1.50;;;11.10;1.00;;;;;;4857832;29;20205;-70
2023/01/07 10:57:37;;;;;;;4.20;1.60;;;11.10;1.00;;;;;;4874632;29;20240;-70
2023/01/07 11:00:11;;;;;;;1.87;1.40;;;11.20;1.00;;;;;;4859242;29;20210;-70
2023/01/07 11:02:43;;;;;;;2.00;1.53;;;11.30;1.00;;;;;;4853091;29;20913;-69
2023/01/07 11:05:11;;;;;;;2.60;1.53;;;11.50;1.00;;;;;;4859421;29;20213;-70
2023/01/07 11:07:49;;;;;;;2.23;1.37;;;11.70;1.00;;;;;;4875689;29;20214;-69
2023/01/07 11:10:20;;;;;;;2.17;1.40;;;12.10;1.00;;;;;;4858051;29;20449;-69
2023/01/07 11:12:58;;;;;;;2.00;1.37;;;12.30;1.00;;;;;;4855424;29;20190;-71
2023/01/07 11:15:34;;;;;;;1.58;1.30;;;13.10;1.00;;;;;;4847475;29;20261;-70
2023/01/07 11:18:03;;;;;;;1.70;1.55;;;14.60;1.00;;;;;;4862587;29;20197;-70
2023/01/07 11:20:47;;;;;;;1.67;1.30;;;14.10;1.00;;;;;;4875969;29;20292;-69
2023/01/07 11:23:30;;;;;;;1.90;1.30;;;14.50;1.00;;;;;;4875879;29;20210;-70
2023/01/07 11:26:25;;;;;;;3.15;1.30;;;14.60;1.00;;;;;;4862098;29;20635;-70
2023/01/07 11:28:52;;;;;;;2.35;1.23;;;15.20;1.00;;;;;;4839943;29;20296;-69
2023/01/07 11:31:20;;;;;;;3.03;1.70;;;14.30;1.00;;;;;;4881188;29;20454;-70
2023/01/07 11:33:52;;;;;;;1.48;1.38;;;13.90;1.00;;;;;;4855943;29;20678;-69
2023/01/07 11:36:42;;;;;;;4.50;1.60;;;13.70;1.00;;;;;;4864094;29;20281;-69
2023/01/07 11:39:29;;;;;;;4.10;2.08;;;13.70;1.00;;;;;;4857010;29;20904;-71
2023/01/07 11:42:37;;;;;;;2.13;1.67;;;13.60;1.00;;;;;;4873634;29;20262;-70
2023/01/07 11:44:47;;;;;;;1.67;1.50;;;13.70;1.00;;;;;;4877631;29;20254;-71
2023/01/07 11:47:17;;;;;;;3.38;1.40;;;13.70;1.00;;;;;;4866842;29;20613;-69
2023/01/07 11:49:45;;;;;;;3.80;1.85;;;13.10;1.00;;;;;;4858756;29;20373;-69
2023/01/07 11:52:19;;;;;;;3.70;1.50;;;13.80;1.00;;;;;;4867006;29;20194;-69
2023/01/07 11:54:52;;;;;;;2.55;1.90;;;14.60;1.00;;;;;;4844840;29;20257;-70
2023/01/07 11:57:24;;;;;;;4.68;3.08;;;14.80;1.00;;;;;;4876452;29;20190;-69
2023/01/07 12:00:10;;;;;;;11.20;7.18;;;15.20;1.00;;;;;;4857723;29;20202;-69
2023/01/07 12:02:37;;;;;;;6.80;3.90;;;16.50;1.00;;;;;;4874866;29;20194;-70
2023/01/07 12:05:18;;;;;;;3.88;2.92;;;16.00;1.00;;;;;;4862154;29;20204;-72
2023/01/07 12:07:47;;;;;;;6.03;4.15;;;14.50;1.00;;;;;;4840777;29;20216;-69
2023/01/07 12:10:23;;;;;;;5.15;3.42;;;14.00;1.00;;;;;;4876254;29;20205;-70
2023/01/07 12:12:50;;;;;;;5.35;3.38;;;14.20;1.00;;;;;;4864443;29;20201;-69
2023/01/07 12:15:23;;;;;;;4.82;3.33;;;14.00;1.00;;;;;;4856256;29;20213;-71
2023/01/07 12:18:05;;;;;;;6.22;4.10;;;14.60;1.00;;;;;;4873614;29;21708;-75
2023/01/07 12:20:44;;;;;;;3.63;2.90;;;14.90;1.00;;;;;;4853082;29;20202;-69
2023/01/07 12:23:36;;;;;;;5.05;3.53;;;15.10;1.00;;;;;;4852864;29;20229;-71
2023/01/07 12:26:09;;;;;;;4.63;2.80;;;14.50;1.00;;;;;;4876242;29;20288;-71
2023/01/07 12:28:51;;;;;;;2.47;1.75;;;14.20;1.00;;;;;;4856995;29;20254;-70
2023/01/07 12:31:18;;;;;;;3.85;2.03;;;14.10;1.00;;;;;;4876000;29;20241;-70
2023/01/07 12:33:55;;;;;;;2.85;2.28;;;13.90;1.00;;;;;;4875557;29;20214;-69
2023/01/07 12:36:45;;;;;;;3.28;2.25;;;14.20;1.00;;;;;;4837759;29;20568;-70
2023/01/07 12:39:29;;;;;;;5.43;3.30;;;13.90;1.00;;;;;;4841370;29;20209;-73
2023/01/07 12:42:13;;;;;;;3.63;2.65;;;13.40;1.00;;;;;;4873888;29;20599;-69
2023/01/07 12:44:47;;;;;;;3.78;2.58;;;13.20;1.00;;;;;;4874688;29;20210;-69
2023/01/07 12:47:20;;;;;;;1.63;1.20;;;14.00;1.00;;;;;;4855370;29;20205;-69
2023/01/07 12:50:23;;;;;;;5.32;3.30;;;13.80;1.00;;;;;;4858532;29;20221;-70
2023/01/07 12:52:56;;;;;;;4.38;2.33;;;13.20;1.00;;;;;;4871872;29;20296;-71
2023/01/07 12:55:38;;;;;;;2.83;2.08;;;13.10;1.00;;;;;;4872590;29;20198;-68
2023/01/07 12:58:17;;;;;;;3.92;3.00;;;13.00;1.00;;;;;;4871099;29;20198;-68
2023/01/07 13:00:53;;;;;;;3.43;2.40;;;12.90;1.00;;;;;;4856990;29;20209;-75
2023/01/07 13:03:43;;;;;;;2.20;1.20;;;12.80;1.00;;;;;;4841823;29;20273;-69
2023/01/07 13:06:36;;;;;;;6.00;3.92;;;12.90;1.00;;;;;;4856647;29;20210;-68
2023/01/07 13:09:27;;;;;;;21.95;13.77;;;13.10;1.00;;;;;;4849125;29;20213;-67
2023/01/07 13:15:27;;;;;;;4.32;2.90;;;13.70;1.00;;;;;;4858412;29;20293;-71
2023/01/07 13:17:56;;;;;;;1.70;1.42;;;13.40;1.00;;;;;;4872807;29;20285;-67
2023/01/07 13:21:00;;;;;;;2.05;1.60;;;13.30;1.00;;;;;;4839844;29;20210;-67
2023/01/07 13:23:43;;;;;;;2.80;1.40;;;13.20;1.00;;;;;;4872572;29;20834;-67
2023/01/07 13:26:22;;;;;;;2.05;1.10;;;13.20;1.00;;;;;;4871097;29;20229;-68
2023/01/07 13:29:13;;;;;;;1.95;1.20;;;13.30;1.00;;;;;;4855321;29;20270;-67
2023/01/07 13:31:48;;;;;;;1.92;1.60;;;13.00;1.00;;;;;;4848296;29;20337;-67